Time;durP1;ratioP1;P1;durP2;ratioP2;P2;SDS_P1;SDS_P2;PMS_P1;PMS_P2;Temp;Humidity;BMP_temperature;BMP_pressure;BME280_temperature;BME280_humidity;BME280_pressure;Samples;Min_cycle;Max_cycle;Signal;HPM_P1;HPM_P2
2023/05/25 00:02:45;;;;;;;14.00;10.30;;;;;;;13.07;76.07;100314.29;218093;1260;140179;-71
2023/05/25 00:07:50;;;;;;;16.10;10.90;;;;;;;13.06;75.86;100305.05;218200;1260;141780;-72
2023/05/25 00:12:56;;;;;;;17.00;11.60;;;;;;;13.00;76.10;100305.29;218575;1262;141101;-71
2023/05/25 00:18:01;;;;;;;20.10;12.30;;;;;;;12.98;76.28;100303.22;218372;1260;139996;-70
2023/05/25 00:23:07;;;;;;;17.20;12.10;;;;;;;12.98;76.39;100306.33;217373;1260;140884;-69
2023/05/25 00:28:12;;;;;;;19.50;11.60;;;;;;;12.94;76.51;100304.91;219349;1261;140429;-71
2023/05/25 00:33:16;;;;;;;17.80;10.90;;;;;;;12.92;76.44;100314.16;217124;1263;139965;-70
2023/05/25 00:38:20;;;;;;;16.90;13.20;;;;;;;12.90;76.62;100322.41;217260;1263;140314;-70
2023/05/25 00:43:25;;;;;;;18.00;13.50;;;;;;;12.88;76.62;100332.73;217959;1260;140277;-69
2023/05/25 00:48:31;;;;;;;22.30;14.20;;;;;;;12.86;76.74;100332.65;217726;1260;139842;-70
2023/05/25 00:53:38;;;;;;;20.80;13.20;;;;;;;12.87;76.89;100327.27;217533;1263;140667;-70
2023/05/25 00:58:46;;;;;;;20.60;14.70;;;;;;;12.85;76.97;100321.08;218235;1260;140465;-70
2023/05/25 01:03:55;;;;;;;17.80;12.60;;;;;;;12.83;77.14;100323.30;217957;1260;141171;-71
2023/05/25 01:09:03;;;;;;;25.10;14.30;;;;;;;12.79;77.34;100323.98;218039;1260;141195;-71
2023/05/25 01:14:10;;;;;;;17.90;12.10;;;;;;;12.81;77.39;100318.19;217935;1260;140179;-71
2023/05/25 01:19:15;;;;;;;18.60;13.10;;;;;;;12.82;77.29;100313.59;217199;1260;139886;-69
2023/05/25 01:24:32;;;;;;;19.10;11.40;;;;;;;12.78;77.51;100314.27;218748;1260;140308;-71
2023/05/25 01:29:40;;;;;;;20.50;11.90;;;;;;;12.76;77.53;100310.14;217300;1260;139944;-70
2023/05/25 01:34:47;;;;;;;18.00;12.40;;;;;;;12.73;77.57;100309.90;218057;1263;140911;-70
2023/05/25 01:39:52;;;;;;;20.80;14.30;;;;;;;12.73;77.73;100307.35;218217;1260;141280;-69
2023/05/25 01:44:58;;;;;;;18.60;12.20;;;;;;;12.75;77.95;100313.40;218482;1260;142126;-70
2023/05/25 01:50:27;;;;;;;22.30;12.60;;;;;;;12.74;77.80;100314.45;219398;1260;140425;-72
2023/05/25 01:55:38;;;;;;;20.50;13.50;;;;;;;12.68;77.88;100315.37;220091;1260;142361;-72
2023/05/25 02:00:46;;;;;;;21.10;12.90;;;;;;;12.66;78.08;100319.08;219967;1260;140853;-73
2023/05/25 02:05:51;;;;;;;28.30;15.40;;;;;;;12.66;78.10;100320.77;219129;1260;140684;-71
2023/05/25 02:10:55;;;;;;;21.90;13.80;;;;;;;12.63;78.39;100318.30;218625;1260;141471;-72
2023/05/25 02:16:01;;;;;;;27.80;15.00;;;;;;;12.65;78.49;100320.98;217584;1260;140774;-71
2023/05/25 02:21:05;;;;;;;21.30;14.40;;;;;;;12.67;78.70;100321.81;217661;1260;140109;-72
2023/05/25 02:26:10;;;;;;;26.80;14.30;;;;;;;12.67;78.97;100326.00;217922;1260;140754;-71
2023/05/25 02:31:14;;;;;;;30.20;14.50;;;;;;;12.64;78.89;100327.14;218550;1260;139545;-70
2023/05/25 02:36:20;;;;;;;22.90;15.70;;;;;;;12.62;79.25;100325.28;219235;1259;140381;-71
2023/05/25 02:41:26;;;;;;;30.90;14.60;;;;;;;12.61;79.43;100331.75;217707;1260;140501;-71
2023/05/25 02:46:32;;;;;;;24.50;15.10;;;;;;;12.58;79.37;100334.48;217843;1258;141424;-71
2023/05/25 02:51:38;;;;;;;27.70;12.50;;;;;;;12.52;79.84;100338.55;217673;1260;140180;-70
2023/05/25 02:56:43;;;;;;;37.00;15.40;;;;;;;12.45;79.89;100340.39;217772;1256;140916;-71
2023/05/25 03:01:47;;;;;;;20.50;13.50;;;;;;;12.43;80.23;100339.31;218595;1257;141454;-71
2023/05/25 03:07:09;;;;;;;32.80;17.50;;;;;;;12.43;80.82;100338.71;218162;1257;139776;-71
2023/05/25 03:12:14;;;;;;;26.90;15.80;;;;;;;12.45;80.51;100341.30;218624;1257;140753;-70
2023/05/25 03:17:18;;;;;;;21.60;13.90;;;;;;;12.47;80.81;100345.39;217976;1259;139798;-70
2023/05/25 03:22:23;;;;;;;30.30;17.60;;;;;;;12.48;80.89;100351.20;219601;1256;140280;-71
2023/05/25 03:27:27;;;;;;;28.30;13.40;;;;;;;12.50;81.03;100349.73;219002;1256;142123;-71
2023/05/25 03:32:32;;;;;;;30.80;15.40;;;;;;;12.49;81.01;100356.63;218091;1259;141301;-71
2023/05/25 03:37:37;;;;;;;26.50;17.10;;;;;;;12.49;81.39;100363.30;219615;1255;142039;-70
2023/05/25 03:42:41;;;;;;;29.40;17.70;;;;;;;12.49;81.43;100361.69;219549;1258;139969;-71
2023/05/25 03:47:46;;;;;;;24.80;13.90;;;;;;;12.50;81.24;100360.08;220509;1257;140946;-70
2023/05/25 03:52:52;;;;;;;26.20;13.60;;;;;;;12.54;81.43;100363.45;219184;1256;140473;-69
2023/05/25 03:57:57;;;;;;;22.70;15.50;;;;;;;12.57;81.54;100362.44;220249;1257;142587;-69
2023/05/25 04:03:03;;;;;;;30.30;15.10;;;;;;;12.60;81.49;100361.89;220234;1257;140530;-70
2023/05/25 04:08:08;;;;;;;22.10;13.30;;;;;;;12.67;81.77;100363.96;219549;1257;140370;-69
2023/05/25 04:13:13;;;;;;;25.90;17.40;;;;;;;12.70;81.23;100366.17;218622;1255;140153;-70
2023/05/25 04:18:19;;;;;;;21.30;14.70;;;;;;;12.75;81.63;100371.06;219450;1257;141444;-71
2023/05/25 04:23:23;;;;;;;24.00;14.40;;;;;;;12.75;81.54;100373.36;218762;1257;139804;-68
2023/05/25 04:28:27;;;;;;;25.30;14.40;;;;;;;12.77;81.31;100370.20;218175;1259;140055;-67
2023/05/25 04:33:33;;;;;;;22.20;13.20;;;;;;;12.81;81.51;100376.61;218724;1258;140209;-71
2023/05/25 04:38:38;;;;;;;18.90;13.00;;;;;;;12.84;81.22;100378.58;217722;1257;139853;-73
2023/05/25 04:43:46;;;;;;;14.50;12.70;;;;;;;12.86;81.28;100371.88;218050;1257;141212;-70
2023/05/25 04:49:09;;;;;;;19.80;13.90;;;;;;;12.86;81.17;100379.16;218123;1259;139945;-69
2023/05/25 04:54:12;;;;;;;19.60;12.60;;;;;;;12.88;81.37;100385.46;218525;1259;140222;-71
2023/05/25 04:59:17;;;;;;;15.30;11.40;;;;;;;12.95;81.20;100384.07;218321;1257;139753;-68
2023/05/25 05:04:23;;;;;;;13.00;10.30;;;;;;;13.00;81.14;100381.30;217996;1259;140578;-70
2023/05/25 05:09:28;;;;;;;16.80;11.20;;;;;;;13.05;80.93;100377.50;218242;1259;140145;-71
2023/05/25 05:14:33;;;;;;;15.60;11.70;;;;;;;13.14;80.85;100379.68;218622;1256;141057;-69
2023/05/25 05:19:38;;;;;;;15.50;11.30;;;;;;;13.26;80.78;100375.34;218895;1256;140085;-69
2023/05/25 05:24:42;;;;;;;16.20;10.90;;;;;;;13.38;80.44;100371.27;218311;1259;140290;-69
2023/05/25 05:29:47;;;;;;;14.90;10.10;;;;;;;13.51;79.98;100377.17;218926;1257;140246;-69
2023/05/25 05:34:53;;;;;;;12.50;8.70;;;;;;;13.61;80.05;100379.52;217826;1257;139897;-69
2023/05/25 05:39:59;;;;;;;12.50;10.50;;;;;;;13.68;79.42;100386.30;219984;1256;140620;-71
2023/05/25 05:45:05;;;;;;;15.60;10.80;;;;;;;13.66;79.17;100395.70;218478;1259;142655;-70
2023/05/25 05:50:10;;;;;;;21.70;10.00;;;;;;;13.64;79.13;100398.17;220373;1257;140661;-70
2023/05/25 05:55:14;;;;;;;17.40;12.00;;;;;;;13.67;78.74;100400.39;220390;1257;140198;-71
2023/05/25 06:00:20;;;;;;;10.60;9.10;;;;;;;13.77;78.70;100401.10;219400;1257;140692;-70
2023/05/25 06:05:25;;;;;;;14.90;10.20;;;;;;;13.99;78.76;100401.73;219971;1256;141183;-69
2023/05/25 06:10:31;;;;;;;11.30;8.60;;;;;;;14.09;78.37;100404.52;218310;1258;141144;-68
2023/05/25 06:15:36;;;;;;;10.60;9.00;;;;;;;14.29;78.32;100401.86;220162;1260;141819;-70
2023/05/25 06:20:41;;;;;;;9.10;8.20;;;;;;;14.65;78.00;100406.87;220353;1257;140426;-71
2023/05/25 06:25:45;;;;;;;11.30;9.30;;;;;;;15.10;77.51;100404.73;219516;1257;140170;-70
2023/05/25 06:30:50;;;;;;;11.00;9.40;;;;;;;15.44;76.95;100406.94;218513;1259;139886;-70
2023/05/25 06:35:59;;;;;;;14.00;10.90;;;;;;;15.74;76.09;100413.08;217954;1257;141178;-68
2023/05/25 06:41:04;;;;;;;11.30;10.00;;;;;;;15.86;75.74;100415.95;218548;1260;142375;-68
2023/05/25 06:46:10;;;;;;;12.60;10.30;;;;;;;15.92;75.38;100418.04;219185;1258;140159;-68
2023/05/25 06:51:15;;;;;;;12.40;9.70;;;;;;;16.07;75.27;100420.52;217635;1260;140441;-68
2023/05/25 06:56:21;;;;;;;11.40;10.20;;;;;;;16.22;74.75;100421.56;218459;1256;139801;-68
2023/05/25 07:01:26;;;;;;;13.10;10.60;;;;;;;16.35;74.41;100418.95;218305;1257;141884;-69
2023/05/25 07:06:32;;;;;;;13.20;10.20;;;;;;;16.77;74.35;100417.77;218102;1260;142520;-69
2023/05/25 07:11:37;;;;;;;14.60;9.60;;;;;;;17.56;73.62;100411.73;217836;1257;141684;-68
2023/05/25 07:16:43;;;;;;;12.80;9.60;;;;;;;19.16;73.19;100404.41;219046;1256;140166;-67
2023/05/25 07:21:48;;;;;;;12.40;10.10;;;;;;;20.38;71.78;100402.18;217524;1260;139621;-67
2023/05/25 07:26:52;;;;;;;10.80;9.50;;;;;;;20.99;69.59;100404.27;218078;1257;140153;-68
2023/05/25 07:31:57;;;;;;;11.60;10.30;;;;;;;21.40;68.30;100401.98;219056;1260;139781;-68
2023/05/25 07:37:02;;;;;;;13.00;10.60;;;;;;;21.62;66.66;100403.77;218402;1258;142549;-68
2023/05/25 07:42:07;;;;;;;11.00;9.80;;;;;;;22.06;66.06;100409.25;219240;1257;140865;-68
2023/05/25 07:47:14;;;;;;;12.30;9.30;;;;;;;22.20;64.38;100412.32;219636;1255;139478;-69
2023/05/25 07:52:18;;;;;;;9.50;8.50;;;;;;;22.13;63.42;100418.60;220145;1257;139970;-70
2023/05/25 07:57:24;;;;;;;17.50;9.60;;;;;;;22.13;62.99;100412.19;220564;1257;139314;-68
2023/05/25 08:02:28;;;;;;;8.50;7.70;;;;;;;22.17;62.60;100406.38;220668;1256;140364;-69
2023/05/25 08:07:33;;;;;;;12.90;9.70;;;;;;;22.13;61.87;100410.77;220606;1257;139587;-66
2023/05/25 08:12:44;;;;;;;9.40;8.50;;;;;;;21.93;61.85;100420.19;220496;1256;139582;-67
2023/05/25 08:17:55;;;;;;;7.20;6.60;;;;;;;22.51;62.40;100412.55;218428;1258;138961;-68
2023/05/25 08:23:01;;;;;;;12.70;8.80;;;;;;;23.06;61.51;100414.82;217892;1256;139296;-68
2023/05/25 08:28:07;;;;;;;7.80;7.10;;;;;;;23.45;61.05;100418.23;219112;1256;140775;-68
2023/05/25 08:33:12;;;;;;;11.30;9.10;;;;;;;23.68;60.06;100419.20;217975;1257;138793;-67
2023/05/25 08:38:16;;;;;;;10.90;8.60;;;;;;;23.76;59.27;100414.05;219116;1258;139241;-67
2023/05/25 08:43:21;;;;;;;11.80;10.00;;;;;;;23.56;58.50;100422.73;218378;1257;140092;-68
2023/05/25 08:48:30;;;;;;;10.70;8.70;;;;;;;23.40;58.06;100423.93;218056;1256;624142;-67
2023/05/25 08:53:45;;;;;;;8.40;7.40;;;;;;;23.54;58.03;100424.31;217907;1257;139920;-68
2023/05/25 08:58:59;;;;;;;10.00;8.90;;;;;;;23.74;57.93;100425.48;217775;1257;138765;-70
2023/05/25 09:04:13;;;;;;;10.50;9.60;;;;;;;24.30;57.80;100430.10;217949;1257;139693;-71
2023/05/25 09:09:19;;;;;;;9.80;8.60;;;;;;;24.55;56.57;100433.46;218242;1256;140522;-71
2023/05/25 09:14:24;;;;;;;10.20;9.00;;;;;;;24.32;55.78;100435.54;218200;1257;139439;-71
2023/05/25 09:19:30;;;;;;;11.00;9.90;;;;;;;24.18;55.63;100434.89;218285;1257;139668;-69
2023/05/25 09:24:35;;;;;;;10.80;8.70;;;;;;;23.80;55.04;100437.21;218229;1257;140156;-67
2023/05/25 09:29:39;;;;;;;11.00;9.80;;;;;;;23.79;55.46;100439.14;217938;1257;139283;-68
2023/05/25 09:44:13;;;;;;;7.70;7.00;;;;;;;23.99;55.40;100439.02;215043;1295;682396;-67
2023/05/25 09:49:16;;;;;;;11.70;8.00;;;;;;;24.03;55.71;100431.48;217105;1269;139317;-67
2023/05/25 09:54:25;;;;;;;8.90;7.80;;;;;;;24.19;55.56;100432.63;215124;1266;1630249;-67
2023/05/25 09:59:30;;;;;;;8.90;7.90;;;;;;;24.40;55.52;100436.09;217389;1266;138803;-67
2023/05/25 10:04:34;;;;;;;11.80;8.30;;;;;;;24.49;54.59;100431.36;218101;1257;139384;-69
2023/05/25 10:09:40;;;;;;;8.60;6.90;;;;;;;24.57;54.49;100429.39;218300;1254;139002;-68
2023/05/25 10:14:49;;;;;;;12.30;7.60;;;;;;;24.67;54.38;100430.08;218070;1259;138988;-68
2023/05/25 10:19:57;;;;;;;14.60;8.10;;;;;;;24.89;54.33;100432.29;219115;1254;140266;-68
2023/05/25 10:25:22;;;;;;;7.70;7.00;;;;;;;25.17;53.63;100431.83;219223;1254;138906;-69
2023/05/25 10:30:28;;;;;;;12.20;8.00;;;;;;;25.22;53.12;100433.27;218088;1259;139552;-68
2023/05/25 10:35:33;;;;;;;7.00;6.30;;;;;;;24.92;52.41;100435.20;219348;1254;141069;-69
2023/05/25 10:40:59;;;;;;;8.90;6.70;;;;;;;24.81;52.13;100432.36;217899;1260;138292;-67
2023/05/25 10:46:05;;;;;;;7.40;6.70;;;;;;;24.78;52.00;100433.27;218691;1258;139599;-69
2023/05/25 10:51:09;;;;;;;14.60;8.50;;;;;;;24.66;51.66;100436.27;218437;1260;138907;-67
2023/05/25 10:56:14;;;;;;;8.30;7.50;;;;;;;24.70;51.60;100431.41;219407;1260;140236;-70
2023/05/25 11:01:17;;;;;;;8.80;7.30;;;;;;;24.55;51.73;100434.78;219041;1260;138947;-71
2023/05/25 11:06:44;;;;;;;8.60;7.00;;;;;;;24.51;51.49;100431.27;218909;1257;139410;-68
2023/05/25 11:11:48;;;;;;;10.90;7.20;;;;;;;24.75;51.55;100419.89;220601;1257;138297;-70
2023/05/25 11:17:14;;;;;;;7.80;7.00;;;;;;;24.98;51.34;100422.55;219731;1257;139276;-68
2023/05/25 11:22:32;;;;;;;10.80;7.30;;;;;;;25.08;50.73;100425.50;218965;1257;140686;-68
2023/05/25 11:27:45;;;;;;;7.30;6.60;;;;;;;25.18;50.56;100418.25;218713;1260;138976;-67
2023/05/25 11:32:49;;;;;;;10.30;8.00;;;;;;;25.46;50.58;100418.60;219480;1259;139629;-67
2023/05/25 11:37:54;;;;;;;7.50;6.80;;;;;;;25.27;49.72;100413.91;218282;1257;140941;-66
2023/05/25 11:42:59;;;;;;;7.30;6.60;;;;;;;24.84;49.82;100411.64;218046;1259;138790;-67
2023/05/25 11:48:04;;;;;;;8.00;7.30;;;;;;;24.49;50.00;100411.62;217727;1259;139124;-66
2023/05/25 11:53:09;;;;;;;9.60;7.20;;;;;;;24.52;50.41;100409.23;218690;1257;139164;-68
2023/05/25 11:58:11;;;;;;;8.30;6.20;;;;;;;24.40;50.20;100405.02;218190;1259;138761;-67
2023/05/25 12:03:31;;;;;;;7.90;7.30;;;;;;;24.47;50.14;100408.36;217996;1260;140215;-69
2023/05/25 12:08:35;;;;;;;8.40;7.30;;;;;;;24.40;50.04;100413.99;218679;1257;138769;-68
2023/05/25 12:13:40;;;;;;;6.90;5.40;;;;;;;24.27;50.39;100412.52;217983;1258;139252;-68
2023/05/25 12:18:43;;;;;;;8.60;7.10;;;;;;;24.42;50.44;100410.11;218951;1257;138998;-68
2023/05/25 12:23:46;;;;;;;8.00;7.30;;;;;;;24.31;50.20;100408.73;218845;1256;141702;-67
2023/05/25 12:29:09;;;;;;;7.90;6.90;;;;;;;24.23;50.11;100405.19;218009;1256;139185;-67
2023/05/25 12:34:14;;;;;;;7.80;7.00;;;;;;;24.08;49.99;100404.47;219186;1258;139908;-71
2023/05/25 12:39:29;;;;;;;8.30;7.60;;;;;;;23.84;50.20;100396.89;218981;1256;138669;-70
2023/05/25 12:44:33;;;;;;;11.00;6.80;;;;;;;23.69;50.19;100399.41;219265;1257;139026;-71
2023/05/25 12:49:39;;;;;;;10.90;7.60;;;;;;;23.62;50.22;100393.14;218004;1256;139942;-70
2023/05/25 12:54:47;;;;;;;7.60;6.90;;;;;;;23.57;50.32;100386.77;219423;1258;139264;-73
2023/05/25 12:59:55;;;;;;;15.00;7.70;;;;;;;23.86;50.52;100385.40;220570;1254;138710;-72
2023/05/25 13:04:59;;;;;;;8.30;7.20;;;;;;;23.87;50.25;100383.84;219623;1254;139537;-69
2023/05/25 13:10:05;;;;;;;9.00;7.60;;;;;;;23.91;50.54;100383.23;220005;1253;139423;-66
2023/05/25 13:15:08;;;;;;;8.00;7.10;;;;;;;23.86;50.76;100378.66;219441;1256;138970;-67
2023/05/25 13:20:16;;;;;;;10.40;6.80;;;;;;;23.76;50.60;100381.55;218379;1254;138733;-67
2023/05/25 13:25:20;;;;;;;8.80;6.00;;;;;;;23.65;50.31;100380.80;219030;1256;140889;-66
2023/05/25 13:30:25;;;;;;;9.50;7.00;;;;;;;23.63;50.30;100377.97;218442;1254;139502;-68
2023/05/25 13:35:36;;;;;;;14.00;8.00;;;;;;;23.75;50.55;100364.47;218460;1253;138852;-69
2023/05/25 13:40:40;;;;;;;10.00;6.50;;;;;;;24.01;50.18;100360.33;218621;1254;139755;-73
2023/05/25 13:45:43;;;;;;;14.50;8.00;;;;;;;24.25;50.23;100359.70;217988;1257;139004;-72
2023/05/25 13:50:48;;;;;;;8.90;8.00;;;;;;;24.28;49.70;100357.45;218177;1254;138754;-74
2023/05/25 13:55:53;;;;;;;7.90;7.20;;;;;;;23.91;49.48;100355.28;217992;1257;138700;-71
2023/05/25 14:00:57;;;;;;;19.40;8.40;;;;;;;23.62;49.61;100354.20;217761;1254;140622;-70
2023/05/25 14:06:01;;;;;;;9.20;7.60;;;;;;;23.42;49.88;100351.73;218074;1254;139973;-72
2023/05/25 14:11:05;;;;;;;10.40;7.50;;;;;;;23.41;50.11;100343.38;218863;1254;140121;-74
2023/05/25 14:16:10;;;;;;;6.90;6.30;;;;;;;23.59;50.31;100342.25;218052;1254;139418;-71
2023/05/25 14:21:15;;;;;;;8.70;6.30;;;;;;;23.64;50.31;100338.49;217880;1254;139329;-69
2023/05/25 14:26:20;;;;;;;8.30;6.90;;;;;;;23.67;50.23;100342.93;218316;1253;139501;-70
2023/05/25 14:31:23;;;;;;;7.60;6.90;;;;;;;23.67;50.15;100344.56;218298;1254;139403;-71
2023/05/25 14:36:26;;;;;;;6.40;5.90;;;;;;;23.72;49.83;100342.13;219877;1254;139551;-71
2023/05/25 14:41:32;;;;;;;9.40;7.00;;;;;;;23.73;49.86;100342.20;218971;1254;138751;-70
2023/05/25 14:46:35;;;;;;;7.40;6.30;;;;;;;23.78;49.65;100336.55;219260;1253;140154;-70
2023/05/25 14:51:38;;;;;;;7.10;6.10;;;;;;;23.77;49.63;100333.40;219755;1254;139383;-84
2023/05/25 14:56:41;;;;;;;11.10;8.20;;;;;;;23.57;49.59;100334.61;218989;1254;139585;-81
2023/05/25 15:01:49;;;;;;;9.70;6.60;;;;;;;23.41;49.63;100325.75;218295;1257;140812;-80
2023/05/25 15:06:51;;;;;;;9.00;7.00;;;;;;;23.20;49.88;100323.32;220157;1253;139535;-69
2023/05/25 15:11:54;;;;;;;10.00;6.90;;;;;;;22.99;50.24;100320.20;218874;1254;139693;-69
2023/05/25 15:16:57;;;;;;;7.30;6.60;;;;;;;22.81;50.45;100320.58;218979;1254;139363;-69
2023/05/25 15:22:01;;;;;;;5.70;5.40;;;;;;;22.75;50.92;100322.67;218142;1254;138858;-68
2023/05/25 15:27:05;;;;;;;7.50;6.30;;;;;;;22.79;50.99;100320.71;219547;1254;139370;-67
2023/05/25 15:32:11;;;;;;;11.60;6.80;;;;;;;22.84;50.75;100318.34;219178;1254;138868;-68
2023/05/25 15:37:16;;;;;;;6.60;6.00;;;;;;;22.96;50.76;100316.23;218724;1253;138729;-81
2023/05/25 15:42:19;;;;;;;7.40;6.50;;;;;;;23.04;50.83;100316.58;218266;1254;139722;-74
2023/05/25 15:47:25;;;;;;;;;;;;;;;23.10;50.58;100317.27;218021;1254;140905;-78
2023/05/25 15:52:29;;;;;;;6.60;6.10;;;;;;;23.16;50.51;100316.12;218102;1254;125686;-72
2023/05/25 15:57:33;;;;;;;6.80;6.10;;;;;;;22.99;50.14;100313.69;217810;1256;138856;-73
2023/05/25 16:02:41;;;;;;;7.80;6.40;;;;;;;22.81;50.25;100316.55;217802;1257;140576;-67
2023/05/25 16:07:48;;;;;;;10.00;7.10;;;;;;;22.69;50.51;100312.34;218448;1254;138746;-69
2023/05/25 16:12:54;;;;;;;6.60;6.10;;;;;;;22.52;50.70;100310.95;219183;1254;138709;-68
2023/05/25 16:18:00;;;;;;;7.60;6.90;;;;;;;22.31;50.86;100308.17;218939;1254;139539;-69
2023/05/25 16:23:13;;;;;;;6.30;5.70;;;;;;;22.11;51.23;100308.55;219439;1256;140563;-68
2023/05/25 16:28:31;;;;;;;7.60;6.90;;;;;;;22.01;51.61;100306.70;218637;1254;138489;-67
2023/05/25 16:33:37;;;;;;;8.00;7.30;;;;;;;21.94;52.06;100307.30;217801;1257;139217;-67
2023/05/25 16:38:45;;;;;;;8.00;7.00;;;;;;;21.87;52.14;100307.73;219461;1256;139088;-71
2023/05/25 16:43:50;;;;;;;7.20;6.50;;;;;;;21.76;52.63;100305.12;217888;1254;139284;-67
2023/05/25 16:48:54;;;;;;;11.20;6.80;;;;;;;21.67;52.64;100299.30;219280;1254;140815;-75
2023/05/25 16:53:58;;;;;;;6.80;6.30;;;;;;;21.57;53.07;100298.91;220760;1254;139427;-73
2023/05/25 16:59:01;;;;;;;8.80;6.20;;;;;;;21.49;53.44;100301.51;220873;1254;138688;-79
2023/05/25 17:04:05;;;;;;;7.00;6.10;;;;;;;21.41;53.56;100303.15;219163;1254;138952;-69
2023/05/25 17:09:10;;;;;;;13.50;7.10;;;;;;;21.33;53.69;100302.67;220659;1254;139816;-67
2023/05/25 17:14:13;;;;;;;16.30;6.50;;;;;;;21.28;53.83;100297.27;220081;1255;139925;-70
2023/05/25 17:19:16;;;;;;;11.20;5.90;;;;;;;21.19;53.94;100300.01;218916;1256;138819;-70
2023/05/25 17:24:22;;;;;;;12.40;6.60;;;;;;;21.06;53.94;100307.60;219755;1256;140357;-71
2023/05/25 17:29:24;;;;;;;11.20;7.10;;;;;;;20.96;54.10;100304.89;219093;1255;139530;-70
2023/05/25 17:34:27;;;;;;;11.20;7.40;;;;;;;20.89;54.28;100303.68;217978;1256;139776;-72
2023/05/25 17:39:31;;;;;;;7.50;6.80;;;;;;;20.79;54.45;100302.29;218802;1257;139148;-70
2023/05/25 17:44:38;;;;;;;6.40;5.90;;;;;;;20.66;54.91;100301.52;217898;1256;138960;-70
2023/05/25 17:49:43;;;;;;;9.50;6.20;;;;;;;20.47;55.45;100302.52;218102;1256;139773;-70
2023/05/25 17:54:46;;;;;;;8.60;7.10;;;;;;;20.29;56.01;100304.50;217780;1254;140071;-70
2023/05/25 17:59:49;;;;;;;6.80;6.20;;;;;;;20.11;56.47;100307.92;218601;1258;138518;-70
2023/05/25 18:04:52;;;;;;;10.20;6.30;;;;;;;19.91;56.84;100308.63;217949;1254;139391;-70
2023/05/25 18:09:55;;;;;;;7.70;6.80;;;;;;;19.72;57.10;100309.84;218931;1254;139223;-68
2023/05/25 18:14:58;;;;;;;7.70;6.60;;;;;;;19.52;57.69;100317.96;218052;1257;138823;-71
2023/05/25 18:20:00;;;;;;;6.90;6.30;;;;;;;19.31;58.09;100320.65;218108;1258;139779;-72
2023/05/25 18:25:05;;;;;;;7.20;6.50;;;;;;;19.09;58.47;100322.54;218580;1256;139570;-71
2023/05/25 18:30:08;;;;;;;9.00;6.60;;;;;;;18.87;58.99;100326.84;218203;1254;139267;-71
2023/05/25 18:35:11;;;;;;;7.60;6.60;;;;;;;18.65;59.39;100330.08;219429;1254;139868;-72
2023/05/25 18:40:15;;;;;;;6.90;6.20;;;;;;;18.45;59.79;100331.64;218355;1254;139434;-70
2023/05/25 18:45:19;;;;;;;10.00;7.60;;;;;;;18.26;60.24;100334.96;219360;1255;140805;-71
2023/05/25 18:50:24;;;;;;;7.00;6.40;;;;;;;18.11;61.04;100340.14;219272;1254;139538;-70
2023/05/25 18:55:29;;;;;;;9.20;8.10;;;;;;;17.99;61.54;100343.33;220816;1254;141414;-72
2023/05/25 19:00:33;;;;;;;7.00;6.30;;;;;;;17.90;62.23;100343.58;220541;1254;139811;-71
2023/05/25 19:05:36;;;;;;;8.60;6.60;;;;;;;17.82;62.64;100343.89;218515;1254;140781;-70
2023/05/25 19:10:40;;;;;;;8.30;6.30;;;;;;;17.72;63.10;100345.17;218682;1254;141290;-69
2023/05/25 19:15:43;;;;;;;10.40;6.80;;;;;;;17.60;63.56;100350.23;219974;1254;140020;-70
2023/05/25 19:20:48;;;;;;;7.40;6.70;;;;;;;17.49;64.24;100355.75;219771;1256;140547;-71
2023/05/25 19:25:51;;;;;;;7.70;7.00;;;;;;;17.40;64.75;100357.84;219251;1254;139714;-71
2023/05/25 19:30:56;;;;;;;8.00;7.40;;;;;;;17.33;65.32;100363.16;218908;1254;139848;-70
2023/05/25 19:36:00;;;;;;;8.80;8.00;;;;;;;17.29;65.68;100368.52;218879;1256;141424;-70
2023/05/25 19:41:06;;;;;;;9.20;7.30;;;;;;;17.27;66.10;100368.02;218546;1254;139738;-69
2023/05/25 19:46:12;;;;;;;9.70;8.10;;;;;;;17.25;66.35;100370.05;218734;1256;140276;-68
2023/05/25 19:51:18;;;;;;;10.20;7.90;;;;;;;17.22;66.49;100373.65;218509;1254;140590;-70
2023/05/25 19:56:21;;;;;;;8.10;7.20;;;;;;;17.20;66.73;100374.19;218108;1254;139940;-68
2023/05/25 20:01:25;;;;;;;9.40;7.60;;;;;;;17.18;66.90;100375.52;218283;1254;140605;-68
2023/05/25 20:06:29;;;;;;;10.40;7.90;;;;;;;17.17;66.88;100375.19;217964;1259;140013;-69
2023/05/25 20:11:33;;;;;;;8.60;6.90;;;;;;;17.15;67.01;100377.50;219086;1254;140676;-70
2023/05/25 20:16:37;;;;;;;10.20;7.20;;;;;;;17.13;67.14;100378.79;218266;1258;140770;-70
2023/05/25 20:21:40;;;;;;;10.40;6.60;;;;;;;17.10;67.38;100378.36;218244;1254;163791;-71
2023/05/25 20:26:44;;;;;;;11.20;8.50;;;;;;;17.04;67.22;100376.92;219112;1256;140730;-70
2023/05/25 20:31:50;;;;;;;12.40;7.60;;;;;;;17.03;67.14;100378.80;219066;1254;140506;-70
2023/05/25 20:36:55;;;;;;;12.50;8.20;;;;;;;17.04;67.05;100378.27;219121;1254;141917;-69
2023/05/25 20:42:00;;;;;;;8.00;6.80;;;;;;;17.06;66.95;100376.45;220346;1254;140428;-68
2023/05/25 20:47:08;;;;;;;10.60;8.10;;;;;;;17.10;66.81;100368.40;219907;1254;139859;-70
2023/05/25 20:52:13;;;;;;;10.30;7.50;;;;;;;17.13;66.59;100370.91;219295;1254;140014;-71
2023/05/25 20:57:18;;;;;;;6.90;6.30;;;;;;;17.14;66.30;100369.41;220266;1253;140497;-71
2023/05/25 21:02:23;;;;;;;10.20;6.90;;;;;;;17.13;66.13;100366.82;218720;1255;141817;-69
2023/05/25 21:07:29;;;;;;;6.00;5.50;;;;;;;17.10;65.74;100366.23;218415;1254;139929;-71
2023/05/25 21:12:34;;;;;;;7.80;5.70;;;;;;;17.05;65.53;100367.83;219774;1257;140793;-70
2023/05/25 21:17:38;;;;;;;6.40;5.90;;;;;;;17.01;65.26;100368.23;218909;1255;140415;-70
2023/05/25 21:22:44;;;;;;;8.60;6.20;;;;;;;16.97;65.21;100370.64;219018;1256;140856;-70
2023/05/25 21:27:46;;;;;;;7.00;6.20;;;;;;;16.95;64.92;100369.86;219231;1254;139810;-70
2023/05/25 21:32:49;;;;;;;8.60;6.80;;;;;;;16.95;64.90;100378.27;218038;1254;139947;-70
2023/05/25 21:37:52;;;;;;;8.50;6.50;;;;;;;16.96;64.80;100379.46;218591;1254;160324;-70
2023/05/25 21:42:55;;;;;;;9.40;6.40;;;;;;;16.96;64.58;100378.39;218375;1255;139993;-70
2023/05/25 21:48:00;;;;;;;6.00;5.10;;;;;;;16.96;64.69;100380.42;218312;1254;140320;-72
2023/05/25 21:53:04;;;;;;;8.20;6.80;;;;;;;16.94;64.59;100381.06;218204;1258;139870;-71
2023/05/25 21:58:09;;;;;;;8.40;6.30;;;;;;;16.93;64.51;100384.18;218355;1257;508273;-70
2023/05/25 22:03:11;;;;;;;6.20;5.20;;;;;;;16.92;64.38;100384.49;218245;1257;139326;-70
2023/05/25 22:08:16;;;;;;;6.80;6.10;;;;;;;16.90;64.26;100384.16;218207;1256;140320;-70
2023/05/25 22:13:18;;;;;;;8.50;6.10;;;;;;;16.87;64.27;100388.23;218864;1254;140861;-70
2023/05/25 22:18:21;;;;;;;7.50;6.00;;;;;;;16.83;64.35;100384.17;219358;1257;142500;-71
2023/05/25 22:23:25;;;;;;;12.00;6.70;;;;;;;16.80;64.23;100389.92;219172;1258;140574;-69
2023/05/25 22:28:30;;;;;;;8.00;7.30;;;;;;;16.75;64.18;100384.14;218699;1255;139995;-70
2023/05/25 22:33:33;;;;;;;10.70;6.60;;;;;;;16.69;64.19;100388.94;219729;1254;139984;-71
2023/05/25 22:38:36;;;;;;;7.80;6.60;;;;;;;16.63;64.20;100388.60;219814;1254;141263;-70
2023/05/25 22:43:37;;;;;;;9.30;6.60;;;;;;;16.56;64.23;100388.53;220566;1254;141908;-72
2023/05/25 22:48:42;;;;;;;9.70;5.90;;;;;;;16.48;64.21;100390.52;221106;1253;139817;-70
2023/05/25 22:53:45;;;;;;;11.10;7.70;;;;;;;16.43;64.26;100386.35;218688;1258;139731;-71
2023/05/25 22:58:48;;;;;;;7.00;6.40;;;;;;;16.33;64.38;100381.31;220179;1257;141407;-71
2023/05/25 23:03:50;;;;;;;7.00;6.30;;;;;;;16.23;64.40;100379.17;220450;1256;140724;-72